createdAt,value
2023-02-13T00:00:00.181Z,34.67
2023-02-13T00:02:30.906Z,35.58
2023-02-13T00:05:01.604Z,36.58
2023-02-13T00:07:31.906Z,36.20
2023-02-13T00:10:01.951Z,36.45
2023-02-13T00:12:33.444Z,35.75
2023-02-13T00:15:03.059Z,35.88
2023-02-13T00:17:32.322Z,35.00
2023-02-13T00:20:02.056Z,36.97
2023-02-13T00:22:32.579Z,36.95
2023-02-13T00:25:01.540Z,36.60
2023-02-13T00:27:32.808Z,36.33
2023-02-13T00:30:01.613Z,35.75
2023-02-13T00:32:31.957Z,35.92
2023-02-13T00:35:01.153Z,37.13
2023-02-13T00:37:30.901Z,37.35
2023-02-13T00:40:01.035Z,35.60
2023-02-13T00:42:33.138Z,35.65
2023-02-13T00:45:02.339Z,37.83
2023-02-13T00:47:33.326Z,36.50
2023-02-13T00:50:02.484Z,36.63
2023-02-13T00:52:32.153Z,37.78
2023-02-13T00:55:02.335Z,36.60
2023-02-13T00:57:34.626Z,37.10
2023-02-13T01:00:04.233Z,36.45
2023-02-13T01:02:36.464Z,36.67
2023-02-13T01:05:07.276Z,36.70
2023-02-13T01:07:38.808Z,37.38
2023-02-13T01:10:11.988Z,38.92
2023-02-13T01:12:42.880Z,38.08
2023-02-13T01:15:13.321Z,37.55
2023-02-13T01:17:43.400Z,36.95
2023-02-13T01:20:15.778Z,40.97
2023-02-13T01:22:47.994Z,39.00
2023-02-13T01:25:18.884Z,38.30
2023-02-13T01:27:49.759Z,37.90
2023-02-13T01:30:21.007Z,37.83
2023-02-13T01:32:51.715Z,39.45
2023-02-13T01:35:22.056Z,38.08
2023-02-13T01:37:50.906Z,38.40
2023-02-13T01:40:20.588Z,39.35
2023-02-13T01:42:51.214Z,40.45
2023-02-13T01:45:29.665Z,39.15
2023-02-13T01:48:06.076Z,38.45
2023-02-13T01:50:44.985Z,38.67
2023-02-13T01:53:21.819Z,37.15
2023-02-13T01:55:55.974Z,38.05
2023-02-13T01:58:35.518Z,38.97
2023-02-13T02:01:07.586Z,40.25
2023-02-13T02:03:41.770Z,38.05
2023-02-13T02:06:18.063Z,38.75
2023-02-13T02:08:52.029Z,38.05
2023-02-13T02:11:36.060Z,38.17
2023-02-13T02:14:07.662Z,36.43
2023-02-13T02:16:36.514Z,36.22
2023-02-13T02:19:13.669Z,35.28
2023-02-13T02:22:38.459Z,37.35
2023-02-13T02:25:51.950Z,37.83
2023-02-13T02:29:33.254Z,36.55
2023-02-13T02:32:39.901Z,36.85
2023-02-13T02:38:09.853Z,36.08
2023-02-13T02:41:00.036Z,36.17
2023-02-13T02:43:50.136Z,35.63
2023-02-13T02:46:26.341Z,35.70
2023-02-13T02:49:25.058Z,35.53
2023-02-13T02:52:05.237Z,36.10
2023-02-13T02:55:17.682Z,36.60
2023-02-13T02:58:09.555Z,36.30
2023-02-13T03:01:01.450Z,34.95
2023-02-13T03:03:50.570Z,33.58
2023-02-13T03:06:28.806Z,34.58
2023-02-13T03:09:20.276Z,35.50
2023-02-13T03:12:42.970Z,34.50
2023-02-13T03:15:13.542Z,32.45
2023-02-13T03:17:59.778Z,34.85
2023-02-13T03:21:01.367Z,35.80
2023-02-13T03:23:46.782Z,33.40
2023-02-13T03:26:50.844Z,33.78
2023-02-13T03:29:57.604Z,33.67
2023-02-13T03:35:34.703Z,31.90
2023-02-13T03:38:13.414Z,31.83
2023-02-13T03:41:23.644Z,32.25
2023-02-13T03:44:03.859Z,31.75
2023-02-13T03:46:38.421Z,32.25
2023-02-13T03:49:29.536Z,32.80
2023-02-13T03:52:05.176Z,31.38
2023-02-13T03:55:02.470Z,32.58
2023-02-13T03:57:55.512Z,32.60
2023-02-13T04:00:28.461Z,30.73
2023-02-13T04:03:08.109Z,31.95
2023-02-13T04:05:44.585Z,31.23
2023-02-13T04:08:14.699Z,29.15
2023-02-13T04:10:58.891Z,30.77
2023-02-13T04:13:41.836Z,31.67
2023-02-13T04:16:21.278Z,30.40
2023-02-13T04:18:54.363Z,30.92
2023-02-13T04:21:28.161Z,29.58
2023-02-13T04:23:58.244Z,30.25
2023-02-13T04:26:31.917Z,29.30
2023-02-13T04:29:02.688Z,29.48
2023-02-13T04:31:32.461Z,29.70
2023-02-13T04:34:02.197Z,30.88
2023-02-13T04:36:32.330Z,30.63
2023-02-13T04:39:02.005Z,29.10
2023-02-13T04:41:32.083Z,29.17
2023-02-13T04:44:02.942Z,30.10
2023-02-13T04:46:37.169Z,29.65
2023-02-13T04:49:06.484Z,28.23
2023-02-13T04:51:36.068Z,28.83
2023-02-13T04:54:06.576Z,29.38
2023-02-13T04:56:36.050Z,28.40
2023-02-13T04:59:06.670Z,27.77
2023-02-13T05:01:38.456Z,28.10
2023-02-13T05:04:09.154Z,26.55
2023-02-13T05:06:39.295Z,28.00
2023-02-13T05:09:08.261Z,27.95
2023-02-13T05:11:37.494Z,29.27
2023-02-13T05:14:12.061Z,29.08
2023-02-13T05:16:42.179Z,29.57
2023-02-13T05:19:14.353Z,27.92
2023-02-13T05:22:03.963Z,27.17
2023-02-13T05:24:32.916Z,28.20
2023-02-13T05:27:03.544Z,28.08
2023-02-13T05:29:37.661Z,27.45
2023-02-13T05:32:08.634Z,26.67
2023-02-13T05:34:38.246Z,26.67
2023-02-13T05:37:09.107Z,26.52
2023-02-13T05:39:40.198Z,27.58
2023-02-13T05:42:11.514Z,26.60
2023-02-13T05:44:45.948Z,26.58
2023-02-13T05:47:17.313Z,27.83
2023-02-13T05:49:54.534Z,25.00
2023-02-13T05:52:25.140Z,25.33
2023-02-13T05:54:55.218Z,27.23
2023-02-13T05:57:24.886Z,30.15
2023-02-13T05:59:55.978Z,28.05
2023-02-13T06:02:25.361Z,24.42
2023-02-13T06:04:54.904Z,27.27
2023-02-13T06:07:27.150Z,25.10
2023-02-13T06:09:58.428Z,26.35
2023-02-13T06:12:32.400Z,25.52
2023-02-13T06:15:04.002Z,24.60
2023-02-13T06:17:33.487Z,26.25
2023-02-13T06:20:09.562Z,25.52
2023-02-13T06:22:40.241Z,25.55
2023-02-13T06:25:10.491Z,23.95
2023-02-13T06:27:42.220Z,26.55
2023-02-13T06:30:18.087Z,25.65
2023-02-13T06:32:49.612Z,25.80
2023-02-13T06:35:21.181Z,25.30
2023-02-13T06:37:54.088Z,24.70
2023-02-13T06:40:24.913Z,24.80
2023-02-13T06:42:54.304Z,28.58
2023-02-13T06:45:24.821Z,26.70
2023-02-13T06:47:53.709Z,25.52
2023-02-13T06:50:25.370Z,25.08
2023-02-13T06:52:56.512Z,24.50
2023-02-13T06:58:17.530Z,24.92
2023-02-13T07:00:50.271Z,25.20
2023-02-13T07:03:19.308Z,26.58
2023-02-13T07:05:52.074Z,24.55
2023-02-13T07:08:26.199Z,24.88
2023-02-13T07:10:58.419Z,23.95
2023-02-13T07:13:30.070Z,26.58
2023-02-13T07:16:05.654Z,26.00
2023-02-13T07:18:37.632Z,25.73
2023-02-13T07:21:09.851Z,24.95
2023-02-13T07:23:39.020Z,25.17
2023-02-13T07:26:11.609Z,24.88
2023-02-13T07:28:47.642Z,24.13
2023-02-13T07:31:20.928Z,24.35
2023-02-13T07:33:51.853Z,24.95
2023-02-13T07:36:28.632Z,23.63
2023-02-13T07:38:57.960Z,24.63
2023-02-13T07:41:27.779Z,24.92
2023-02-13T07:44:00.535Z,24.80
2023-02-13T07:46:32.191Z,23.67
2023-02-13T07:49:02.727Z,24.17
2023-02-13T07:51:36.810Z,23.88
2023-02-13T07:54:06.773Z,24.58
2023-02-13T07:56:36.273Z,23.23
2023-02-13T07:59:06.923Z,25.60
2023-02-13T08:01:38.425Z,24.88
2023-02-13T08:04:14.161Z,25.30
2023-02-13T08:06:44.045Z,25.42
2023-02-13T08:09:41.007Z,24.88
2023-02-13T08:12:12.283Z,23.75
2023-02-13T08:14:45.369Z,24.85
2023-02-13T08:17:17.342Z,24.05
2023-02-13T08:19:46.228Z,24.88
2023-02-13T08:22:19.133Z,25.27
2023-02-13T08:24:50.650Z,25.58
2023-02-13T08:27:20.594Z,23.90
2023-02-13T08:29:54.771Z,24.25
2023-02-13T08:32:26.189Z,24.80
2023-02-13T08:34:59.611Z,25.38
2023-02-13T08:37:29.621Z,24.48
2023-02-13T08:40:00.793Z,25.17
2023-02-13T08:42:31.579Z,24.95
2023-02-13T08:45:02.272Z,23.33
2023-02-13T08:47:36.222Z,25.88
2023-02-13T08:50:07.120Z,24.45
2023-02-13T08:52:36.615Z,24.38
2023-02-13T08:55:07.849Z,24.70
2023-02-13T08:57:38.391Z,26.13
2023-02-13T09:00:11.155Z,24.58
2023-02-13T09:02:43.548Z,25.17
2023-02-13T09:05:13.342Z,24.75
2023-02-13T09:07:43.377Z,26.02
2023-02-13T09:10:15.424Z,25.00
2023-02-13T09:12:47.624Z,24.58
2023-02-13T09:15:21.186Z,25.15
2023-02-13T09:17:52.225Z,26.05
2023-02-13T09:20:22.327Z,25.20
2023-02-13T09:22:51.240Z,24.63
2023-02-13T09:25:22.012Z,24.92
2023-02-13T09:27:51.506Z,25.25
2023-02-13T09:30:26.595Z,25.17
2023-02-13T09:32:57.853Z,25.30
2023-02-13T09:35:29.412Z,25.15
2023-02-13T09:38:03.616Z,26.67
2023-02-13T09:40:40.406Z,24.75
2023-02-13T09:43:18.284Z,25.38
2023-02-13T09:45:50.745Z,25.90
2023-02-13T09:48:31.435Z,26.05
2023-02-13T09:51:03.503Z,26.00
2023-02-13T09:53:33.437Z,26.75
2023-02-13T09:56:19.443Z,27.42
2023-02-13T09:58:50.977Z,25.27
2023-02-13T10:01:29.173Z,26.58
2023-02-13T10:04:33.833Z,27.88
2023-02-13T10:07:41.394Z,26.38
2023-02-13T10:10:30.267Z,26.17
2023-02-13T10:13:18.042Z,27.55
2023-02-13T10:15:55.487Z,26.13
2023-02-13T10:18:32.210Z,25.85
2023-02-13T10:21:06.305Z,27.65
2023-02-13T10:23:43.913Z,26.45
2023-02-13T10:26:20.727Z,26.15
2023-02-13T10:29:11.401Z,24.65
2023-02-13T10:31:49.071Z,25.77
2023-02-13T10:34:19.321Z,26.05
2023-02-13T10:36:50.132Z,25.25
2023-02-13T10:39:29.022Z,26.13
2023-02-13T10:42:07.901Z,25.05
2023-02-13T10:44:53.578Z,26.98
2023-02-13T10:50:15.473Z,25.85
2023-02-13T10:52:58.357Z,27.00
2023-02-13T10:55:53.648Z,27.35
2023-02-13T10:58:31.548Z,27.40
2023-02-13T11:01:08.344Z,27.42
2023-02-13T11:03:37.167Z,27.17
2023-02-13T11:06:14.002Z,27.73
2023-02-13T11:08:48.943Z,27.45
2023-02-13T11:11:35.797Z,27.17
2023-02-13T11:14:18.443Z,27.73
2023-02-13T11:16:57.272Z,26.67
2023-02-13T11:19:34.143Z,26.27
2023-02-13T11:22:10.860Z,27.20
2023-02-13T11:24:44.320Z,27.27
2023-02-13T11:27:15.020Z,26.88
2023-02-13T11:29:58.958Z,27.00
2023-02-13T11:32:32.045Z,25.92
2023-02-13T11:35:28.357Z,26.45
2023-02-13T11:38:21.071Z,26.77
2023-02-13T11:41:04.708Z,26.98
2023-02-13T11:43:39.401Z,27.27
2023-02-13T11:46:18.405Z,26.08
2023-02-13T11:49:01.504Z,28.98
2023-02-13T11:51:46.868Z,26.27
2023-02-13T11:54:41.452Z,27.45
2023-02-13T11:57:24.700Z,26.73
2023-02-13T11:59:55.023Z,26.25
2023-02-13T12:02:26.406Z,24.77
2023-02-13T12:05:16.328Z,23.67
2023-02-13T12:07:47.710Z,25.40
2023-02-13T12:10:26.561Z,23.27
2023-02-13T12:12:59.541Z,24.27
2023-02-13T12:15:31.463Z,25.35
2023-02-13T12:18:12.355Z,24.30
2023-02-13T12:20:54.323Z,24.27
2023-02-13T12:23:35.262Z,25.52
2023-02-13T12:26:24.280Z,24.70
2023-02-13T12:29:34.308Z,23.77
2023-02-13T12:32:15.075Z,25.08
2023-02-13T12:35:33.241Z,25.70
2023-02-13T12:38:09.949Z,24.50
2023-02-13T12:41:21.034Z,25.17
2023-02-13T12:44:30.115Z,24.95
2023-02-13T12:47:16.547Z,24.10
2023-02-13T12:50:25.065Z,25.17
2023-02-13T12:53:30.472Z,25.17
2023-02-13T12:56:25.864Z,23.70
2023-02-13T12:59:11.612Z,23.73
2023-02-13T13:02:11.526Z,23.40
2023-02-13T13:04:56.107Z,25.48
2023-02-13T13:07:47.705Z,22.88
2023-02-13T13:10:43.155Z,23.83
2023-02-13T13:13:26.349Z,21.67
2023-02-13T13:16:09.430Z,20.10
2023-02-13T13:18:57.128Z,19.88
2023-02-13T13:21:47.610Z,21.10
2023-02-13T13:24:35.121Z,20.30
2023-02-13T13:27:05.460Z,21.58
2023-02-13T13:29:45.788Z,20.67
2023-02-13T13:32:22.692Z,20.02
2023-02-13T13:34:52.092Z,19.92
2023-02-13T13:37:32.269Z,20.60
2023-02-13T13:40:07.589Z,20.08
2023-02-13T13:42:43.576Z,19.90
2023-02-13T13:45:28.627Z,20.10
2023-02-13T13:48:53.346Z,19.77
2023-02-13T13:51:22.795Z,22.05
2023-02-13T13:54:34.916Z,20.92
2023-02-13T13:57:12.632Z,19.90
2023-02-13T14:00:27.304Z,20.23
2023-02-13T14:03:35.910Z,20.33
2023-02-13T14:06:10.235Z,20.88
2023-02-13T14:09:30.064Z,19.63
2023-02-13T14:12:02.633Z,19.40
2023-02-13T14:14:55.887Z,18.90
2023-02-13T14:17:55.259Z,20.35
2023-02-13T14:20:45.537Z,19.90
2023-02-13T14:23:53.490Z,18.52
2023-02-13T14:26:37.267Z,18.95
2023-02-13T14:29:33.029Z,20.02
2023-02-13T14:32:24.332Z,20.25
2023-02-13T14:35:00.584Z,19.08
2023-02-13T14:37:40.449Z,20.40
2023-02-13T14:40:47.444Z,18.15
2023-02-13T14:43:37.322Z,18.13
2023-02-13T14:46:18.838Z,19.77
2023-02-13T14:48:54.440Z,17.83
2023-02-13T14:51:35.243Z,18.80
2023-02-13T14:54:18.885Z,18.90
2023-02-13T14:56:51.030Z,16.92
2023-02-13T14:59:24.101Z,16.27
2023-02-13T15:02:00.417Z,18.02
2023-02-13T15:04:36.815Z,17.48
2023-02-13T15:07:08.291Z,18.13
2023-02-13T15:09:42.733Z,18.02
2023-02-13T15:12:29.118Z,18.73
2023-02-13T15:14:57.710Z,18.40
2023-02-13T15:17:33.871Z,18.45
2023-02-13T15:20:21.797Z,18.45
2023-02-13T15:22:50.764Z,17.95
2023-02-13T15:25:30.635Z,17.08
2023-02-13T15:28:00.665Z,18.33
2023-02-13T15:30:30.827Z,18.67
2023-02-13T15:33:02.879Z,17.77
2023-02-13T15:35:34.723Z,17.75
2023-02-13T15:38:21.815Z,17.97
2023-02-13T15:40:53.621Z,28.92
2023-02-13T15:43:33.418Z,18.70
2023-02-13T15:46:06.369Z,20.45
2023-02-13T15:48:36.955Z,18.85
2023-02-13T15:51:06.586Z,18.20
2023-02-13T15:53:38.931Z,28.30
2023-02-13T15:56:15.911Z,18.20
2023-02-13T15:58:44.985Z,19.33
2023-02-13T16:01:18.201Z,23.15
2023-02-13T16:03:50.296Z,23.38
2023-02-13T16:06:22.228Z,20.13
2023-02-13T16:08:55.223Z,19.13
2023-02-13T16:11:38.298Z,18.95
2023-02-13T16:14:21.834Z,19.38
2023-02-13T16:17:07.005Z,18.90
2023-02-13T16:19:57.149Z,20.17
2023-02-13T16:22:37.153Z,19.42
2023-02-13T16:25:22.632Z,21.10
2023-02-13T16:27:57.754Z,20.02
2023-02-13T16:30:38.494Z,20.20
2023-02-13T16:33:29.801Z,19.35
2023-02-13T16:36:00.856Z,20.10
2023-02-13T16:38:35.894Z,25.52
2023-02-13T16:41:08.078Z,21.90
2023-02-13T16:43:45.357Z,19.55
2023-02-13T16:46:25.919Z,21.55
2023-02-13T16:49:17.797Z,22.08
2023-02-13T16:51:52.857Z,22.63
2023-02-13T16:54:38.236Z,21.10
2023-02-13T16:57:23.886Z,21.67
2023-02-13T17:00:09.761Z,22.50
2023-02-13T17:05:22.714Z,19.88
2023-02-13T17:07:53.480Z,21.60
2023-02-13T17:10:27.290Z,21.35
2023-02-13T17:12:58.301Z,22.67
2023-02-13T17:15:31.391Z,21.60
2023-02-13T17:18:01.014Z,22.17
2023-02-13T17:20:33.286Z,22.42
2023-02-13T17:23:04.851Z,22.70
2023-02-13T17:25:35.742Z,22.50
2023-02-13T17:28:14.386Z,22.35
2023-02-13T17:30:47.767Z,22.58
2023-02-13T17:33:23.169Z,23.48
2023-02-13T17:38:20.910Z,23.00
2023-02-13T17:40:50.382Z,23.75
2023-02-13T17:43:20.726Z,23.60
2023-02-13T17:45:51.558Z,22.27
2023-02-13T17:48:24.058Z,23.10
2023-02-13T17:50:53.252Z,23.15
2023-02-13T17:53:26.144Z,22.77
2023-02-13T17:55:55.356Z,22.92
2023-02-13T17:58:24.139Z,24.02
2023-02-13T18:00:54.431Z,28.42
2023-02-13T18:03:23.197Z,28.13
2023-02-13T18:05:51.742Z,26.42
2023-02-13T18:08:20.241Z,26.02
2023-02-13T18:10:49.019Z,23.98
2023-02-13T18:13:17.668Z,23.63
2023-02-13T18:15:46.874Z,23.83
2023-02-13T18:18:18.923Z,26.08
2023-02-13T18:20:47.719Z,24.13
2023-02-13T18:23:16.291Z,23.05
2023-02-13T18:25:44.882Z,25.40
2023-02-13T18:28:14.299Z,25.17
2023-02-13T18:30:43.995Z,24.73
2023-02-13T18:33:13.025Z,25.27
2023-02-13T18:35:43.923Z,25.40
2023-02-13T18:38:13.805Z,26.45
2023-02-13T18:40:42.992Z,25.00
2023-02-13T18:43:15.756Z,25.77
2023-02-13T18:45:46.778Z,27.40
2023-02-13T18:48:15.954Z,27.90
2023-02-13T18:50:46.099Z,26.30
2023-02-13T18:53:14.982Z,27.15
2023-02-13T18:55:43.634Z,25.92
2023-02-13T18:58:12.358Z,26.75
2023-02-13T19:00:40.892Z,28.15
2023-02-13T19:03:09.409Z,28.92
2023-02-13T19:05:42.685Z,30.58
2023-02-13T19:08:12.997Z,34.88
2023-02-13T19:10:41.792Z,34.30
2023-02-13T19:13:10.338Z,35.88
2023-02-13T19:15:38.917Z,33.60
2023-02-13T19:18:08.001Z,36.30
2023-02-13T19:20:38.521Z,36.67
2023-02-13T19:23:11.507Z,34.67
2023-02-13T19:25:40.322Z,33.42
2023-02-13T19:28:09.191Z,36.30
2023-02-13T19:30:38.977Z,37.60
2023-02-13T19:33:07.896Z,35.72
2023-02-13T19:35:37.017Z,35.08
2023-02-13T19:38:05.988Z,35.92
2023-02-13T19:40:39.285Z,36.90
2023-02-13T19:43:08.165Z,36.90
2023-02-13T19:45:38.230Z,35.30
2023-02-13T19:48:09.810Z,37.15
2023-02-13T19:50:39.241Z,39.50
2023-02-13T19:53:08.913Z,39.20
2023-02-13T19:55:39.070Z,37.42
2023-02-13T19:58:07.948Z,37.85
2023-02-13T20:00:36.754Z,44.35
2023-02-13T20:03:05.999Z,39.95
2023-02-13T20:05:41.088Z,39.90
2023-02-13T20:08:09.725Z,36.22
2023-02-13T20:10:46.902Z,36.10
2023-02-13T20:13:22.825Z,39.60
2023-02-13T20:15:55.648Z,46.28
2023-02-13T20:18:24.365Z,44.10
2023-02-13T20:20:53.057Z,45.80
2023-02-13T20:23:21.665Z,41.60
2023-02-13T20:25:51.659Z,41.78
2023-02-13T20:28:20.576Z,40.67
2023-02-13T20:30:49.213Z,43.60
2023-02-13T20:33:19.168Z,43.40
2023-02-13T20:35:48.124Z,43.42
2023-02-13T20:38:17.235Z,43.83
2023-02-13T20:40:46.773Z,43.92
2023-02-13T20:43:17.660Z,43.58
2023-02-13T20:45:46.393Z,42.72
2023-02-13T20:48:15.064Z,42.75
2023-02-13T20:50:43.982Z,43.97
2023-02-13T20:53:13.136Z,43.17
2023-02-13T20:55:43.254Z,41.28
2023-02-13T20:58:11.738Z,45.00
2023-02-13T21:00:43.369Z,45.45
2023-02-13T21:03:14.186Z,44.55
2023-02-13T21:05:42.917Z,44.88
2023-02-13T21:08:11.970Z,43.65
2023-02-13T21:10:40.671Z,44.33
2023-02-13T21:13:10.456Z,46.15
2023-02-13T21:15:41.206Z,44.00
2023-02-13T21:18:09.895Z,45.00
2023-02-13T21:20:41.832Z,44.00
2023-02-13T21:23:10.616Z,43.53
2023-02-13T21:25:39.150Z,45.42
2023-02-13T21:28:07.965Z,43.55
2023-02-13T21:30:38.204Z,45.55
2023-02-13T21:33:10.795Z,45.65
2023-02-13T21:35:39.740Z,47.10
2023-02-13T21:38:08.863Z,47.53
2023-02-13T21:40:37.943Z,49.65
2023-02-13T21:43:07.213Z,48.65
2023-02-13T21:45:36.994Z,48.55
2023-02-13T21:48:07.862Z,47.95
2023-02-13T21:50:36.345Z,45.67
2023-02-13T21:53:07.417Z,48.58
2023-02-13T21:55:36.316Z,50.35
2023-02-13T21:58:04.951Z,60.90
2023-02-13T22:00:34.063Z,60.20
2023-02-13T22:03:02.814Z,57.35
2023-02-13T22:05:33.945Z,53.45
2023-02-13T22:08:11.932Z,53.58
2023-02-13T22:10:41.063Z,51.88
2023-02-13T22:13:10.243Z,52.25
2023-02-13T22:15:39.352Z,48.28
2023-02-13T22:18:08.128Z,50.28
2023-02-13T22:20:40.026Z,48.10
2023-02-13T22:23:08.656Z,47.83
2023-02-13T22:25:37.247Z,50.25
2023-02-13T22:28:06.433Z,48.22
2023-02-13T22:30:37.682Z,47.15
2023-02-13T22:33:06.605Z,47.67
2023-02-13T22:35:41.189Z,48.20
2023-02-13T22:38:10.978Z,46.10
2023-02-13T22:40:41.366Z,45.03
2023-02-13T22:43:12.708Z,46.88
2023-02-13T22:45:41.481Z,47.83
2023-02-13T22:48:10.569Z,48.20
2023-02-13T22:50:41.236Z,46.78
2023-02-13T22:53:09.970Z,48.45
2023-02-13T22:55:38.556Z,50.25
2023-02-13T22:58:10.535Z,50.75
2023-02-13T23:00:39.220Z,49.85
2023-02-13T23:03:07.927Z,51.42
2023-02-13T23:05:39.663Z,50.05
2023-02-13T23:08:14.733Z,49.53
2023-02-13T23:10:43.813Z,50.10
2023-02-13T23:13:11.670Z,51.78
2023-02-13T23:15:40.726Z,49.97
2023-02-13T23:18:14.063Z,48.17
2023-02-13T23:20:43.448Z,49.72
2023-02-13T23:23:13.811Z,50.88
2023-02-13T23:25:42.596Z,50.45
2023-02-13T23:28:11.463Z,48.90
2023-02-13T23:30:41.497Z,47.08
2023-02-13T23:33:10.147Z,47.92
2023-02-13T23:35:38.927Z,47.42
2023-02-13T23:38:07.350Z,50.67
2023-02-13T23:40:37.785Z,48.17
2023-02-13T23:43:07.286Z,49.45
2023-02-13T23:45:35.949Z,46.35
2023-02-13T23:48:04.895Z,48.03
2023-02-13T23:50:34.332Z,48.88
2023-02-13T23:53:02.927Z,48.40
2023-02-13T23:55:31.823Z,50.35
2023-02-13T23:58:02.348Z,51.30
